Time;durP1;ratioP1;P1;durP2;ratioP2;P2;SDS_P1;SDS_P2;PMS_P1;PMS_P2;Temp;Humidity;BMP_temperature;BMP_pressure;BME280_temperature;BME280_humidity;BME280_pressure;Samples;Min_cycle;Max_cycle;Signal;HPM_P1;HPM_P2
2022/02/18 00:00:21;;;;;;;;;11.67;7.33;;;;;-147.17;96.94;50529.06;4982485;28;51927;-66
2022/02/18 00:02:46;;;;;;;;;6.00;6.00;;;;;-147.17;97.02;50568.44;4984307;28;51206;-66
2022/02/18 00:05:11;;;;;;;;;10.00;7.00;;;;;-147.17;97.49;50556.63;4988420;28;51253;-64
2022/02/18 00:07:37;;;;;;;;;9.50;9.50;;;;;-147.17;97.75;50548.75;4987188;28;52210;-63
2022/02/18 00:10:04;;;;;;;;;7.67;6.33;;;;;-147.17;97.57;50517.25;4986513;28;51224;-63
2022/02/18 00:12:29;;;;;;;;;7.33;5.67;;;;;-147.17;97.89;50534.97;4994188;28;51094;-63
2022/02/18 00:14:54;;;;;;;;;5.67;5.67;;;;;-147.17;98.61;50513.31;4988107;28;51356;-62
2022/02/18 00:17:20;;;;;;;;;7.67;5.33;;;;;-147.17;98.89;50552.69;4975171;28;51166;-61
2022/02/18 00:19:45;;;;;;;;;6.67;6.67;;;;;-147.17;98.51;50531.03;4990215;28;51993;-62
2022/02/18 00:22:11;;;;;;;;;8.00;6.00;;;;;-147.17;99.44;50509.38;4969741;28;50893;-63
2022/02/18 00:24:36;;;;;;;;;7.00;5.00;;;;;-147.17;99.74;50558.59;4985483;28;51214;-62
2022/02/18 00:27:02;;;;;;;;;9.00;7.00;;;;;-147.17;100.00;50507.41;4974444;28;51629;-62
2022/02/18 00:29:27;;;;;;;;;9.00;8.67;;;;;-147.17;100.00;50493.63;4972091;28;51136;-63
2022/02/18 00:31:53;;;;;;;;;10.25;7.00;;;;;-147.17;100.00;50489.69;4989755;28;51193;-62
2022/02/18 00:34:18;;;;;;;;;9.67;6.00;;;;;-147.17;100.00;50462.13;4972426;28;51561;-62
2022/02/18 00:36:44;;;;;;;;;9.00;7.00;;;;;-147.17;100.00;50422.75;4990765;28;51151;-63
2022/02/18 00:39:09;;;;;;;;;8.50;6.25;;;;;-147.17;100.00;50428.66;4987588;28;51922;-62
2022/02/18 00:41:34;;;;;;;;;8.33;7.00;;;;;-147.17;100.00;50408.97;4991338;28;51173;-62
2022/02/18 00:44:03;;;;;;;;;14.33;7.67;;;;;-147.17;100.00;50387.31;4991433;28;51163;-63
2022/02/18 00:46:29;;;;;;;;;7.00;6.00;;;;;-147.17;100.00;50395.19;4973403;28;51143;-65
2022/02/18 00:48:55;;;;;;;;;7.00;6.00;;;;;-147.17;100.00;50383.38;4983582;28;51935;-63
2022/02/18 00:51:21;;;;;;;;;9.33;7.00;;;;;-147.17;100.00;50373.53;4991027;28;51152;-62
2022/02/18 00:53:47;;;;;;;;;7.33;5.33;;;;;-147.17;100.00;50395.19;4987947;28;51149;-62
2022/02/18 00:56:12;;;;;;;;;4.00;4.00;;;;;-147.17;100.00;50355.81;4983480;28;51275;-62
2022/02/18 00:58:38;;;;;;;;;6.67;5.33;;;;;-147.17;100.00;50355.81;4987112;28;52358;-62
2022/02/18 01:01:04;;;;;;;;;9.50;5.75;;;;;-147.17;100.00;50391.25;4986468;28;51154;-62
2022/02/18 01:03:29;;;;;;;;;6.00;5.67;;;;;-147.17;100.00;50387.31;4988676;28;51288;-63
2022/02/18 01:05:55;;;;;;;;;5.00;4.00;;;;;-147.17;100.00;50353.84;4986402;28;51362;-62
2022/02/18 01:08:20;;;;;;;;;7.00;5.33;;;;;-147.17;100.00;50357.78;4987171;28;51199;-61
2022/02/18 01:10:46;;;;;;;;;10.00;9.67;;;;;-147.17;100.00;50355.81;4990286;28;51137;-60
2022/02/18 01:13:14;;;;;;;;;6.33;4.67;;;;;-147.17;100.00;50365.66;4992046;28;51186;-62
2022/02/18 01:15:39;;;;;;;;;7.00;5.00;;;;;-147.17;100.00;50324.31;4990357;28;51822;-61
2022/02/18 01:18:04;;;;;;;;;7.33;7.00;;;;;-147.17;100.00;50369.59;4986635;28;51625;-61
2022/02/18 01:20:30;;;;;;;;;7.00;5.67;;;;;-147.17;100.00;50340.06;4986587;28;51130;-61
2022/02/18 01:22:56;;;;;;;;;7.00;4.33;;;;;-147.17;100.00;50330.22;4984973;28;51573;-62
2022/02/18 01:25:21;;;;;;;;;5.00;5.00;;;;;-147.17;100.00;50375.50;4989118;28;51411;-61
2022/02/18 01:27:47;;;;;;;;;5.00;4.33;;;;;-147.17;100.00;50355.81;4989325;28;51756;-61
2022/02/18 01:30:13;;;;;;;;;5.67;5.67;;;;;-147.17;100.00;50316.44;4968384;28;51301;-61
2022/02/18 01:32:39;;;;;;;;;6.00;5.00;;;;;-147.17;100.00;50338.09;4988456;28;51313;-61
2022/02/18 01:35:04;;;;;;;;;5.00;5.00;;;;;-147.17;100.00;50328.25;4987794;28;51186;-60
2022/02/18 01:37:30;;;;;;;;;6.75;5.50;;;;;-147.17;100.00;50308.59;4985464;28;52007;-61
2022/02/18 01:39:56;;;;;;;;;5.00;4.33;;;;;-147.17;100.00;50310.56;4986559;28;51110;-60
2022/02/18 01:42:21;;;;;;;;;4.33;4.33;;;;;-147.17;100.00;50288.91;4967340;28;51377;-61
2022/02/18 01:44:48;;;;;;;;;6.00;4.33;;;;;-147.17;100.00;50265.28;4989729;28;51270;-62
2022/02/18 01:47:20;;;;;;;;;6.67;5.00;;;;;-147.17;100.00;50245.59;4986765;28;51940;-61
2022/02/18 01:49:46;;;;;;;;;9.33;6.00;;;;;-147.17;100.00;50227.88;4988921;28;51544;-61
2022/02/18 01:52:14;;;;;;;;;5.00;4.00;;;;;-147.17;100.00;50221.97;4989200;28;51128;-61
2022/02/18 01:54:40;;;;;;;;;7.00;5.33;;;;;-147.17;100.00;50198.34;4992324;28;52221;-61
2022/02/18 01:57:05;;;;;;;;;7.33;5.00;;;;;-147.17;100.00;50186.53;4991470;28;51484;-63
2022/02/18 01:59:30;;;;;;;;;7.67;5.67;;;;;-147.17;100.00;50198.34;4971204;28;51249;-62
2022/02/18 02:01:59;;;;;;;;;7.00;5.75;;;;;-147.17;100.00;50147.16;4969980;28;51038;-62
2022/02/18 02:04:29;;;;;;;;;7.00;6.33;;;;;-147.17;100.00;50170.78;4990000;28;52485;-63
2022/02/18 02:06:58;;;;;;;;;8.25;7.00;;;;;-147.17;100.00;50095.97;4974029;28;53010;-63
2022/02/18 02:09:25;;;;;;;;;8.33;7.33;;;;;-147.17;100.00;50086.16;4972715;28;51504;-62
2022/02/18 02:11:50;;;;;;;;;6.67;6.33;;;;;-147.17;100.00;50105.81;4987881;28;51407;-62
2022/02/18 02:14:16;;;;;;;;;7.50;7.25;;;;;-147.17;100.00;50109.75;4992460;28;51603;-62
2022/02/18 02:16:41;;;;;;;;;10.00;8.25;;;;;-147.17;100.00;50068.44;4988859;28;51643;-62
2022/02/18 02:19:07;;;;;;;;;9.25;8.75;;;;;-147.17;100.00;50034.97;4988808;28;51280;-61
2022/02/18 02:21:32;;;;;;;;;12.75;10.75;;;;;-147.17;100.00;50050.72;4992426;28;52700;-63
2022/02/18 02:23:58;;;;;;;;;12.75;12.00;;;;;-147.17;100.00;50050.72;4955267;28;52511;-61
2022/02/18 02:26:23;;;;;;;;;11.00;10.00;;;;;-147.17;100.00;50033.00;4988857;28;51634;-61
2022/02/18 02:28:49;;;;;;;;;11.00;8.33;;;;;-147.17;100.00;50044.81;4988739;28;51154;-61
2022/02/18 02:31:14;;;;;;;;;7.75;7.50;;;;;-147.17;100.00;50027.09;4990024;28;51258;-61
2022/02/18 02:33:39;;;;;;;;;6.75;6.00;;;;;-147.17;100.00;50003.47;4992212;28;51354;-61
2022/02/18 02:36:05;;;;;;;;;6.00;6.00;;;;;-147.17;100.00;49997.56;4985900;28;51620;-61
2022/02/18 02:38:30;;;;;;;;;6.00;6.00;;;;;-147.17;100.00;49995.59;4970109;28;51222;-61
2022/02/18 02:40:55;;;;;;;;;4.00;4.00;;;;;-147.17;100.00;49950.31;4993099;28;51277;-61
2022/02/18 02:43:22;;;;;;;;;6.33;5.00;;;;;-147.17;100.00;49938.50;4974953;28;52675;-61
2022/02/18 02:45:47;;;;;;;;;3.00;3.00;;;;;-147.17;100.00;49938.50;4987879;28;51742;-60
2022/02/18 02:48:13;;;;;;;;;4.00;4.00;;;;;-147.17;100.00;49881.44;4993267;28;51158;-61
2022/02/18 02:50:38;;;;;;;;;5.33;5.33;;;;;-147.17;100.00;49922.78;4985245;28;51210;-61
2022/02/18 02:53:04;;;;;;;;;6.00;6.00;;;;;-147.17;100.00;49954.25;4993387;28;51282;-61
2022/02/18 02:55:29;;;;;;;;;5.67;5.33;;;;;-147.17;100.00;49950.31;4991029;28;51171;-61
2022/02/18 02:57:55;;;;;;;;;7.00;6.00;;;;;-147.17;100.00;49916.88;4991539;28;51043;-60
2022/02/18 03:00:20;;;;;;;;;4.67;4.67;;;;;-147.17;100.00;49899.16;4988865;28;51142;-61
2022/02/18 03:02:46;;;;;;;;;4.67;4.67;;;;;-147.17;100.00;49887.34;4990051;28;51321;-61
2022/02/18 03:05:13;;;;;;;;;5.33;5.33;;;;;-147.17;100.00;49867.66;4988235;28;51613;-61
2022/02/18 03:07:39;;;;;;;;;5.00;4.00;;;;;-147.17;100.00;49905.06;4990953;28;51158;-61
2022/02/18 03:10:06;;;;;;;;;5.67;5.67;;;;;-147.17;100.00;49836.16;4989002;28;51175;-61
2022/02/18 03:12:32;;;;;;;;;5.67;5.00;;;;;-147.17;100.00;49847.97;4975654;28;51427;-61
2022/02/18 03:14:57;;;;;;;;;8.33;7.33;;;;;-147.17;100.00;49873.56;4969846;28;53940;-61
2022/02/18 03:17:23;;;;;;;;;5.00;5.00;;;;;-147.17;100.00;49832.22;4991052;28;51276;-60
2022/02/18 03:19:49;;;;;;;;;5.00;4.67;;;;;-147.17;100.00;49806.63;4984903;28;51232;-62
2022/02/18 03:22:14;;;;;;;;;4.00;4.00;;;;;-147.17;100.00;49828.28;4993718;28;51112;-61
2022/02/18 03:24:40;;;;;;;;;5.00;5.00;;;;;-147.17;100.00;49786.94;4987510;28;51179;-60
2022/02/18 03:27:05;;;;;;;;;5.00;5.00;;;;;-147.17;100.00;49844.03;4992157;28;51214;-60
2022/02/18 03:29:30;;;;;;;;;5.33;5.00;;;;;-147.17;100.00;49808.59;4986600;28;51150;-60
2022/02/18 03:31:56;;;;;;;;;5.33;5.00;;;;;-147.17;100.00;49792.84;4991644;28;50945;-60
2022/02/18 03:34:21;;;;;;;;;3.67;2.00;;;;;-147.17;100.00;49808.59;4985934;28;52714;-62
2022/02/18 03:36:47;;;;;;;;;3.33;3.00;;;;;-147.17;100.00;49800.72;4994329;28;51134;-62
2022/02/18 03:39:13;;;;;;;;;2.00;2.00;;;;;-147.17;100.00;49765.31;4991842;28;51257;-62
2022/02/18 03:41:38;;;;;;;;;2.00;2.00;;;;;-147.17;100.00;49769.25;4979942;28;51308;-61
2022/02/18 03:44:06;;;;;;;;;1.00;1.00;;;;;-147.17;100.00;49794.81;4971387;28;52532;-61
2022/02/18 03:46:32;;;;;;;;;1.00;1.00;;;;;-147.17;100.00;49800.72;4990222;28;51229;-61
2022/02/18 03:48:58;;;;;;;;;0.00;0.00;;;;;-147.17;100.00;49765.31;4972977;28;51087;-60
2022/02/18 03:51:23;;;;;;;;;0.33;0.00;;;;;-147.17;100.00;49784.97;4989574;28;51076;-61
2022/02/18 03:53:49;;;;;;;;;0.00;0.00;;;;;-147.17;100.00;49796.78;4990813;28;51247;-61
2022/02/18 03:56:16;;;;;;;;;1.00;1.00;;;;;-147.17;100.00;49802.69;4985236;28;51080;-61
2022/02/18 03:58:42;;;;;;;;;0.00;0.00;;;;;-147.17;100.00;49802.69;4990390;28;51213;-60
2022/02/18 04:01:07;;;;;;;;;1.00;0.00;;;;;-147.17;100.00;49836.16;4972325;28;51265;-61
2022/02/18 04:03:33;;;;;;;;;0.00;0.00;;;;;-147.17;100.00;49818.44;4987806;28;51725;-61
2022/02/18 04:05:59;;;;;;;;;0.00;0.00;;;;;-147.17;100.00;49812.53;4990333;28;51363;-61
2022/02/18 04:08:24;;;;;;;;;0.00;0.00;;;;;-147.17;100.00;49859.78;4990912;28;52031;-61
2022/02/18 04:10:49;;;;;;;;;0.00;0.00;;;;;-147.17;100.00;49873.56;4989847;28;51055;-61
2022/02/18 04:13:15;;;;;;;;;0.00;0.00;;;;;-147.17;100.00;49844.03;4990164;28;51781;-61
2022/02/18 04:15:40;;;;;;;;;0.00;0.00;;;;;-147.17;100.00;49871.59;4990278;28;51196;-60
2022/02/18 04:18:06;;;;;;;;;0.00;0.00;;;;;-147.17;100.00;49838.13;4991019;28;52576;-61
2022/02/18 04:20:31;;;;;;;;;0.00;0.00;;;;;-147.17;100.00;49879.47;4988955;28;51909;-61
2022/02/18 04:22:57;;;;;;;;;0.00;0.00;;;;;-147.17;100.00;49861.75;4988512;28;51149;-61
2022/02/18 04:25:22;;;;;;;;;0.00;0.00;;;;;-147.17;100.00;49873.56;4988696;28;51386;-61
2022/02/18 04:27:55;;;;;;;;;0.00;0.00;;;;;-147.17;100.00;49914.91;4990871;28;51247;-61
2022/02/18 04:30:21;;;;;;;;;0.00;0.00;;;;;-147.17;100.00;49928.66;4989861;28;50920;-61
2022/02/18 04:32:47;;;;;;;;;0.00;0.00;;;;;-147.17;100.00;49879.47;4988792;28;51094;-60
2022/02/18 04:35:13;;;;;;;;;0.33;0.33;;;;;-147.17;100.00;49899.16;4977213;28;51081;-61
2022/02/18 04:37:39;;;;;;;;;0.00;0.00;;;;;-147.17;100.00;49922.78;4985972;28;51189;-61
2022/02/18 04:40:05;;;;;;;;;0.00;0.00;;;;;-147.17;100.00;49905.06;4991041;28;51174;-61
2022/02/18 04:42:30;;;;;;;;;0.00;0.00;;;;;-147.17;100.00;49922.78;4983334;28;51964;-61
2022/02/18 04:44:55;;;;;;;;;0.00;0.00;;;;;-147.17;100.00;49897.19;4989794;28;51212;-61
2022/02/18 04:47:21;;;;;;;;;0.00;0.00;;;;;-147.17;100.00;49930.63;4988836;28;51027;-61
2022/02/18 04:49:46;;;;;;;;;0.00;0.00;;;;;-147.17;100.00;49934.56;4986150;28;51396;-61
2022/02/18 04:52:13;;;;;;;;;0.00;0.00;;;;;-147.17;100.00;49920.81;4993474;28;51179;-61
2022/02/18 04:54:39;;;;;;;;;1.00;1.00;;;;;-147.17;100.00;49914.91;4992107;28;51203;-61
2022/02/18 04:57:04;;;;;;;;;0.00;0.00;;;;;-147.17;100.00;49912.94;4986891;28;51143;-61
2022/02/18 04:59:30;;;;;;;;;0.00;0.00;;;;;-147.17;100.00;49918.84;4970277;28;51149;-61
2022/02/18 05:01:55;;;;;;;;;0.67;0.67;;;;;-147.17;100.00;49948.34;4985919;28;51799;-60
2022/02/18 05:04:21;;;;;;;;;0.00;0.00;;;;;-147.17;100.00;49912.94;4989154;28;52014;-60
2022/02/18 05:06:46;;;;;;;;;0.00;0.00;;;;;-147.17;100.00;49958.19;4988520;28;51281;-59
2022/02/18 05:09:11;;;;;;;;;0.00;0.00;;;;;-147.17;100.00;49932.59;4970555;28;51044;-60
2022/02/18 05:11:37;;;;;;;;;0.00;0.00;;;;;-147.17;100.00;49997.56;4970577;28;51324;-61
2022/02/18 05:14:02;;;;;;;;;0.00;0.00;;;;;-147.17;100.00;49958.19;4989990;28;51111;-62
2022/02/18 05:16:28;;;;;;;;;0.00;0.00;;;;;-147.17;100.00;49968.03;4990746;28;51233;-59
2022/02/18 05:18:55;;;;;;;;;1.00;0.00;;;;;-147.17;100.00;49968.03;4986519;28;51178;-60
2022/02/18 05:21:24;;;;;;;;;0.00;0.00;;;;;-147.17;100.00;49924.72;4988595;28;51922;-60
2022/02/18 05:23:49;;;;;;;;;0.00;0.00;;;;;-147.17;100.00;49948.34;4954649;28;51276;-61
2022/02/18 05:26:15;;;;;;;;;1.00;0.00;;;;;-147.17;100.00;49942.44;4986327;28;51106;-60
2022/02/18 05:28:40;;;;;;;;;1.00;0.00;;;;;-147.17;100.00;49916.88;4985731;28;51351;-61
2022/02/18 05:31:06;;;;;;;;;1.33;0.33;;;;;-147.17;100.00;49938.50;4988013;28;52076;-60
2022/02/18 05:33:31;;;;;;;;;0.67;0.00;;;;;-147.17;100.00;49914.91;4988923;28;51203;-61
2022/02/18 05:35:57;;;;;;;;;0.00;0.00;;;;;-147.17;100.00;49883.41;4990147;28;51933;-63
2022/02/18 05:38:22;;;;;;;;;0.00;0.00;;;;;-147.17;100.00;49928.66;4972530;28;51122;-61
2022/02/18 05:40:47;;;;;;;;;0.00;0.00;;;;;-147.17;100.00;49942.44;4985992;28;51162;-62
2022/02/18 05:43:13;;;;;;;;;0.00;0.00;;;;;-147.17;100.00;49893.25;4987933;28;51206;-60
2022/02/18 05:45:38;;;;;;;;;0.00;0.00;;;;;-147.17;100.00;49914.91;4990069;28;51529;-60
2022/02/18 05:48:04;;;;;;;;;1.00;0.00;;;;;-147.17;100.00;49918.84;4987950;28;51251;-61
2022/02/18 05:50:30;;;;;;;;;0.00;0.00;;;;;-147.17;100.00;49942.44;4954660;28;51857;-60
2022/02/18 05:52:55;;;;;;;;;0.00;0.00;;;;;-147.17;100.00;49938.50;4985066;28;51237;-60
2022/02/18 05:55:21;;;;;;;;;1.00;0.00;;;;;-147.17;100.00;49918.84;4970468;28;51132;-61
2022/02/18 05:57:46;;;;;;;;;0.00;0.00;;;;;-147.17;100.00;49903.09;4986450;28;51079;-60
2022/02/18 06:00:12;;;;;;;;;0.00;0.00;;;;;-147.17;100.00;49914.91;4988677;28;52048;-60
2022/02/18 06:02:38;;;;;;;;;1.00;0.00;;;;;-147.17;100.00;49920.81;4987662;28;51281;-60
2022/02/18 06:05:04;;;;;;;;;0.00;0.00;;;;;-147.17;100.00;49960.16;4985587;28;51252;-60
2022/02/18 06:07:30;;;;;;;;;0.00;0.00;;;;;-147.17;100.00;49926.69;4987987;28;51437;-61
2022/02/18 06:09:55;;;;;;;;;0.00;0.00;;;;;-147.17;100.00;49920.81;4986408;28;51578;-60
2022/02/18 06:12:21;;;;;;;;;0.00;0.00;;;;;-147.17;100.00;49940.47;4987928;28;52755;-60
2022/02/18 06:14:50;;;;;;;;;0.00;0.00;;;;;-147.17;100.00;49910.97;4986769;28;51093;-61
2022/02/18 06:17:21;;;;;;;;;0.00;0.00;;;;;-147.17;100.00;49944.41;4985853;28;51207;-60
2022/02/18 06:19:47;;;;;;;;;0.67;0.00;;;;;-147.17;100.00;49960.16;4984795;28;52055;-61
2022/02/18 06:22:12;;;;;;;;;0.00;0.00;;;;;-147.17;100.00;49958.19;4971137;28;51059;-61
2022/02/18 06:24:38;;;;;;;;;0.00;0.00;;;;;-147.17;100.00;49966.06;4984655;28;51619;-60
2022/02/18 06:27:04;;;;;;;;;0.00;0.00;;;;;-147.17;100.00;49922.78;4989531;28;51020;-60
2022/02/18 06:29:30;;;;;;;;;0.00;0.00;;;;;-147.17;100.00;49950.31;4982161;28;51964;-61
2022/02/18 06:31:57;;;;;;;;;0.33;0.33;;;;;-147.17;100.00;49903.09;4988152;28;51211;-61
2022/02/18 06:34:22;;;;;;;;;0.00;0.00;;;;;-147.17;100.00;49938.50;4984100;28;51634;-61
2022/02/18 06:36:51;;;;;;;;;0.00;0.00;;;;;-147.17;100.00;49950.31;4975004;28;51303;-61
2022/02/18 06:39:16;;;;;;;;;0.33;0.00;;;;;-147.17;100.00;49916.88;4991958;28;52798;-61
2022/02/18 06:41:42;;;;;;;;;0.00;0.00;;;;;-147.17;100.00;49968.03;4989431;28;50996;-61
2022/02/18 06:44:09;;;;;;;;;0.00;0.00;;;;;-147.17;100.00;49973.94;4996760;28;52764;-62
2022/02/18 06:46:34;;;;;;;;;1.00;1.00;;;;;-147.17;100.00;49950.31;4991649;28;51335;-61
2022/02/18 06:49:00;;;;;;;;;0.00;0.00;;;;;-147.17;100.00;49952.28;4990683;28;51864;-61
2022/02/18 06:51:25;;;;;;;;;1.00;0.00;;;;;-147.17;100.00;49966.06;4990189;28;51323;-62
2022/02/18 06:53:50;;;;;;;;;0.00;0.00;;;;;-147.17;100.00;49981.81;4985310;28;51161;-61
2022/02/18 06:56:16;;;;;;;;;0.67;0.67;;;;;-147.17;100.00;50005.44;4975792;28;51232;-61
2022/02/18 06:58:41;;;;;;;;;0.00;0.00;;;;;-147.17;100.00;50001.50;4988083;28;52240;-61
2022/02/18 07:01:06;;;;;;;;;1.00;1.00;;;;;-147.17;100.00;50001.50;4991290;28;51187;-60
2022/02/18 07:03:32;;;;;;;;;0.00;0.00;;;;;-147.17;100.00;50011.34;4975503;28;51108;-61
2022/02/18 07:06:01;;;;;;;;;0.00;0.00;;;;;-147.17;100.00;50017.25;4990302;28;51223;-61
2022/02/18 07:08:26;;;;;;;;;0.00;0.00;;;;;-147.17;100.00;50001.50;4989317;28;52125;-61
2022/02/18 07:10:52;;;;;;;;;1.00;1.00;;;;;-147.17;100.00;50005.44;4990767;28;51274;-61
2022/02/18 07:13:19;;;;;;;;;0.00;0.00;;;;;-147.17;100.00;50021.19;4989433;28;51391;-61
2022/02/18 07:15:45;;;;;;;;;1.00;1.00;;;;;-147.17;100.00;50044.81;4987765;28;51242;-61
2022/02/18 07:18:11;;;;;;;;;1.67;1.00;;;;;-147.17;100.00;50013.31;4986075;28;51807;-61
2022/02/18 07:20:36;;;;;;;;;0.00;0.00;;;;;-147.17;100.00;50044.81;4991615;28;52394;-60
2022/02/18 07:23:05;;;;;;;;;0.00;0.00;;;;;-147.17;100.00;50072.38;4987761;28;51059;-61
2022/02/18 07:25:30;;;;;;;;;1.33;1.00;;;;;-147.17;100.00;50013.31;4987342;28;51038;-61
2022/02/18 07:27:56;;;;;;;;;3.00;2.67;;;;;-147.17;100.00;50084.19;4985426;28;51315;-61
2022/02/18 07:30:21;;;;;;;;;1.00;1.00;;;;;-147.17;100.00;50011.34;4983263;28;51235;-61
2022/02/18 07:32:48;;;;;;;;;2.00;2.00;;;;;-147.17;100.00;50052.69;4991774;28;51509;-60
2022/02/18 07:35:13;;;;;;;;;1.33;1.00;;;;;-147.17;100.00;50076.31;4988083;28;51453;-59
2022/02/18 07:37:38;;;;;;;;;2.00;2.00;;;;;-147.17;100.00;50090.09;4981594;28;52260;-60
2022/02/18 07:40:05;;;;;;;;;2.00;1.00;;;;;-147.17;100.00;50060.56;4987271;28;51289;-60
2022/02/18 07:42:30;;;;;;;;;1.00;1.00;;;;;-147.17;100.00;50094.00;4990424;28;51172;-61
2022/02/18 07:44:56;;;;;;;;;2.67;1.00;;;;;-147.17;100.00;50060.56;4971450;28;51455;-61
2022/02/18 07:47:22;;;;;;;;;3.00;2.67;;;;;-147.17;100.00;50088.13;4969273;28;51767;-60
2022/02/18 07:49:48;;;;;;;;;1.00;1.00;;;;;-147.17;100.00;50105.81;4987868;28;51212;-61
2022/02/18 07:52:15;;;;;;;;;1.00;1.00;;;;;-147.17;100.00;50074.34;4985703;28;51062;-63
2022/02/18 07:54:40;;;;;;;;;1.00;1.00;;;;;-147.17;100.00;50105.81;4993115;28;51056;-62
2022/02/18 07:57:06;;;;;;;;;1.00;1.00;;;;;-147.17;100.00;50040.88;4987236;28;53597;-63
2022/02/18 07:59:32;;;;;;;;;1.00;1.00;;;;;-147.17;100.00;50076.31;4992697;28;51302;-63
2022/02/18 08:01:57;;;;;;;;;0.00;0.00;;;;;-147.17;100.00;50088.13;4972516;28;51101;-63
2022/02/18 08:04:22;;;;;;;;;0.33;0.00;;;;;-147.17;100.00;50099.91;4993144;28;51078;-63
2022/02/18 08:06:48;;;;;;;;;1.33;0.00;;;;;-147.17;100.00;50127.47;4991710;28;51715;-64
2022/02/18 08:09:14;;;;;;;;;0.67;0.67;;;;;-147.17;100.00;50115.66;4975372;28;51220;-64
2022/02/18 08:11:40;;;;;;;;;0.00;0.00;;;;;-147.17;100.00;50095.97;4992520;28;51171;-63
2022/02/18 08:14:05;;;;;;;;;2.00;2.00;;;;;-147.17;100.00;50084.19;4974828;28;51076;-62
2022/02/18 08:16:31;;;;;;;;;1.00;0.33;;;;;-147.17;100.00;50092.03;4992260;28;51785;-62
2022/02/18 08:18:57;;;;;;;;;0.00;0.00;;;;;-147.17;100.00;50125.50;4991786;28;51142;-63
2022/02/18 08:21:22;;;;;;;;;0.00;0.00;;;;;-147.17;100.00;50097.94;4991962;28;51056;-63
2022/02/18 08:23:52;;;;;;;;;0.67;0.67;;;;;-147.17;100.00;50131.41;4991576;28;51408;-63
2022/02/18 08:26:18;;;;;;;;;1.00;0.00;;;;;-147.17;100.00;50111.72;4992418;28;51971;-62
2022/02/18 08:28:44;;;;;;;;;2.00;1.00;;;;;-147.17;100.00;50135.34;4991375;28;51260;-62
2022/02/18 08:31:09;;;;;;;;;0.00;0.00;;;;;-147.17;100.00;50176.69;4992601;28;51298;-63
2022/02/18 08:33:34;;;;;;;;;1.00;1.00;;;;;-147.17;100.00;50141.25;4991404;28;51240;-62
2022/02/18 08:36:05;;;;;;;;;0.00;0.00;;;;;-147.17;100.00;50151.09;4991863;28;51946;-63
2022/02/18 08:38:31;;;;;;;;;0.00;0.00;;;;;-147.17;100.00;50151.09;4991772;28;51040;-62
2022/02/18 08:40:56;;;;;;;;;0.00;0.00;;;;;-147.17;100.00;50170.78;4991623;28;50993;-62
2022/02/18 08:43:21;;;;;;;;;1.00;0.00;;;;;-147.17;100.00;50139.28;4991630;28;51185;-62
2022/02/18 08:45:47;;;;;;;;;1.00;1.00;;;;;-147.17;100.00;50147.16;4991243;28;52825;-62
2022/02/18 08:48:12;;;;;;;;;0.00;0.00;;;;;-147.17;100.00;50162.91;4991678;28;51102;-62
2022/02/18 08:50:38;;;;;;;;;1.00;0.00;;;;;-147.17;100.00;50164.88;4991897;28;50996;-63
2022/02/18 08:53:03;;;;;;;;;0.67;0.00;;;;;-147.17;100.00;50145.19;4992016;28;51053;-61
2022/02/18 08:55:29;;;;;;;;;0.00;0.00;;;;;-147.17;100.00;50151.09;4992763;28;51841;-63
2022/02/18 08:57:57;;;;;;;;;1.00;1.00;;;;;-147.17;100.00;50182.59;4974500;28;51174;-62
2022/02/18 09:00:23;;;;;;;;;1.00;1.00;;;;;-147.17;100.00;50206.22;4990199;28;51113;-63
2022/02/18 09:02:49;;;;;;;;;1.00;1.00;;;;;-147.17;100.00;50166.84;4985707;28;51397;-62
2022/02/18 09:05:14;;;;;;;;;1.00;1.00;;;;;-147.17;100.00;50097.94;4986974;28;51208;-62
2022/02/18 09:07:41;;;;;;;;;1.00;1.00;;;;;-147.17;100.00;50151.09;4991653;28;50939;-62
2022/02/18 09:10:07;;;;;;;;;1.00;0.33;;;;;-147.17;100.00;50107.78;4991377;28;51103;-62
2022/02/18 09:12:37;;;;;;;;;1.00;1.00;;;;;-147.17;100.00;50131.41;4991689;28;51171;-62
2022/02/18 09:15:06;;;;;;;;;0.00;0.00;;;;;-147.17;100.00;50135.34;4990871;28;51983;-62
2022/02/18 09:17:32;;;;;;;;;0.67;0.67;;;;;-147.17;100.00;50097.94;4991809;28;51231;-62
2022/02/18 09:19:58;;;;;;;;;1.00;1.00;;;;;-147.17;100.00;50115.66;4991200;28;51197;-63
2022/02/18 09:22:24;;;;;;;;;1.33;1.33;;;;;-147.17;100.00;50097.94;4991658;28;51366;-63
2022/02/18 09:24:49;;;;;;;;;0.00;0.00;;;;;-147.17;100.00;50080.25;4973865;28;51174;-62
2022/02/18 09:27:15;;;;;;;;;1.00;1.00;;;;;-147.17;100.00;50099.91;4989847;28;51091;-63
2022/02/18 09:29:40;;;;;;;;;0.00;0.00;;;;;-147.17;100.00;50009.38;4991909;28;51179;-62
2022/02/18 09:32:06;;;;;;;;;2.00;1.00;;;;;-147.17;100.00;49997.56;4973431;28;51114;-62
2022/02/18 09:34:31;;;;;;;;;1.00;1.00;;;;;-147.17;100.00;50005.44;4991459;28;51111;-63
2022/02/18 09:36:57;;;;;;;;;1.00;1.00;;;;;-147.17;100.00;49958.19;4957664;28;51134;-62
2022/02/18 09:39:24;;;;;;;;;0.00;0.00;;;;;-147.17;100.00;50013.31;4992081;28;51117;-62
2022/02/18 09:41:49;;;;;;;;;1.00;1.00;;;;;-147.17;100.00;49993.63;4991058;28;51048;-64
2022/02/18 09:44:17;;;;;;;;;0.00;0.00;;;;;-147.17;100.00;49979.84;4991156;28;52069;-62
2022/02/18 09:46:45;;;;;;;;;1.00;1.00;;;;;-147.17;100.00;49942.44;4990509;28;51290;-61
2022/02/18 09:49:10;;;;;;;;;0.00;0.00;;;;;-147.17;100.00;49962.13;4987915;28;51240;-62
2022/02/18 09:51:38;;;;;;;;;1.33;1.00;;;;;-147.17;100.00;49910.97;4990950;28;51307;-61
2022/02/18 09:54:04;;;;;;;;;1.00;1.00;;;;;-147.17;100.00;49891.28;4991028;28;51153;-62
2022/02/18 09:56:33;;;;;;;;;2.33;2.00;;;;;-147.17;100.00;49875.53;4991141;28;51019;-62
2022/02/18 09:59:04;;;;;;;;;1.00;1.00;;;;;-147.17;100.00;49895.22;4989662;28;51019;-62
2022/02/18 10:01:33;;;;;;;;;1.00;0.00;;;;;-147.17;100.00;49879.47;4984858;28;51544;-62
2022/02/18 10:04:00;;;;;;;;;0.67;0.67;;;;;-147.17;100.00;49849.94;4984323;28;51193;-62
2022/02/18 10:06:29;;;;;;;;;1.00;1.00;;;;;-147.17;100.00;49796.78;4970755;28;51106;-63
2022/02/18 10:08:56;;;;;;;;;0.00;0.00;;;;;-147.17;100.00;49788.91;4988828;28;51284;-63
2022/02/18 10:11:22;;;;;;;;;1.00;1.00;;;;;-147.17;100.00;49832.22;4974105;28;53416;-62
2022/02/18 10:13:48;;;;;;;;;1.00;1.00;;;;;-147.17;100.00;49832.22;4993236;28;52069;-62
2022/02/18 10:16:18;;;;;;;;;1.00;1.00;;;;;-147.17;100.00;49820.41;4976905;28;51118;-63
2022/02/18 10:18:56;;;;;;;;;2.00;2.00;;;;;-147.17;100.00;49788.91;4993504;28;51046;-61
2022/02/18 10:21:29;;;;;;;;;1.00;1.00;;;;;-147.17;100.00;49824.34;4987099;28;50948;-64
2022/02/18 10:24:16;;;;;;;;;1.33;1.33;;;;;-147.17;100.00;49818.44;4975473;28;54221;-61
2022/02/18 10:27:02;;;;;;;;;0.33;0.33;;;;;-147.17;100.00;49804.66;4993553;28;50978;-62
2022/02/18 10:29:27;;;;;;;;;1.67;0.00;;;;;-147.17;100.00;49816.47;4992197;28;51280;-62
2022/02/18 10:32:13;;;;;;;;;1.00;1.00;;;;;-147.17;100.00;49824.34;4993215;28;51380;-63
2022/02/18 10:34:56;;;;;;;;;0.67;0.67;;;;;-147.17;100.00;49802.69;4990661;28;51020;-62
2022/02/18 10:37:24;;;;;;;;;2.00;2.00;;;;;-147.17;100.00;49812.53;4993809;28;51147;-62
2022/02/18 10:39:50;;;;;;;;;0.00;0.00;;;;;-147.17;100.00;49824.34;4994431;28;51156;-62
2022/02/18 10:42:17;;;;;;;;;1.00;0.00;;;;;-147.17;100.00;49836.16;4992667;28;51427;-62
2022/02/18 10:44:42;;;;;;;;;1.00;1.00;;;;;-147.17;100.00;49869.63;4993989;28;51877;-62
2022/02/18 10:47:19;;;;;;;;;0.67;0.67;;;;;-147.17;100.00;49853.88;4993247;28;51285;-62
2022/02/18 10:49:46;;;;;;;;;0.00;0.00;;;;;-147.17;100.00;49863.72;4990153;28;51101;-62
2022/02/18 10:52:12;;;;;;;;;0.00;0.00;;;;;-147.17;100.00;49855.84;4993251;28;51099;-62
2022/02/18 10:54:38;;;;;;;;;0.00;0.00;;;;;-147.17;100.00;49847.97;4994917;28;51838;-62
2022/02/18 10:57:20;;;;;;;;;1.00;0.67;;;;;-147.17;100.00;49859.78;4992455;28;51027;-62
2022/02/18 10:59:46;;;;;;;;;0.33;0.00;;;;;-147.17;100.00;49847.97;4969365;28;50882;-61
2022/02/18 11:02:12;;;;;;;;;1.00;1.00;;;;;-147.17;100.00;49867.66;4992099;28;51013;-63
2022/02/18 11:04:37;;;;;;;;;1.00;1.00;;;;;-147.17;100.00;49832.22;4993233;28;50987;-63